Portada
METAR-TAF:

METAR-TAF

Aeropuertos :

Oujda, Marruecos

Aeropuerto de Oujda Angads

latitud: 34-47N, longitud: 001-56W, altitud: 468 m

Observación

El informe se hizo hace 57 minutos, a las 02:00 UTC
Viento 5 kt del sur
Temperatura 6°C
Humedad 93%
Presión 1021 hPa
Visibilidad: 8000 m

METAR: GMFO 180200Z 18005KT 8000 NSC 06/05 Q1021 NOSIG

Hora: 02:57 (02:57 UTC)

Pronóstico

El informe se hizo hace 3 horas y 57 minutos, a las 23:00 UTC
Pronóstico válido del 18 a las 00 UTC al 19 a las 06 UTC
Viento 5 kt del sur
Visibilidad 10 km o más
Escasas nubes a una altura de 2000 ft
Evolucionando progresivamente
del 18 a las 14 UTC al 18 a las 18 UTC
Viento 12 kt del norte-noroeste
Visibilidad 10 km o más
Escasas nubes a una altura de 2600 ft
Cielo nuboso a una altura de 23000 ft

TAF: GMFO 172300Z 1800/1906 19005KT 9999 FEW020 BECMG 1814/1818 34012KT 9999 FEW026 BKN230

Observaciones y pronósticos meteorológicos de más de 4000 aeropuertos (mensajes METAR y TAF).

Los puntos amarillos y rojos representan las estaciones disponibles.

Ponga el ratón en el punto deseado para ver el nombre de la estación.

Haga clic para ver las observaciones y los pronósticos meteorológicos.

Para cambiar el mapa : haga clic en los botones verdes con una cruz de color negro para hacer un zoom, en el botón verde con un guión para alejar o en las flechas verdes para mapas adyacentes.


METAR-TAF: